Time;durP1;ratioP1;P1;durP2;ratioP2;P2;SDS_P1;SDS_P2;PMS_P1;PMS_P2;Temp;Humidity;BMP_temperature;BMP_pressure;BME280_temperature;BME280_humidity;BME280_pressure;Samples;Min_cycle;Max_cycle;Signal;HPM_P1;HPM_P2
2022/01/05 00:00:36;;;;;;;12.17;5.40;;;3.30;99.90;;;;;;4881497;29;20404;-80
2022/01/05 00:03:04;;;;;;;12.73;5.70;;;3.30;99.90;;;;;;4881468;29;20427;-80
2022/01/05 00:05:30;;;;;;;9.02;5.00;;;3.30;99.90;;;;;;4881655;29;20381;-80
2022/01/05 00:07:56;;;;;;;8.93;4.88;;;3.30;99.90;;;;;;4881757;29;20384;-80
2022/01/05 00:10:21;;;;;;;11.38;5.28;;;3.30;99.90;;;;;;4904063;29;20405;-82
2022/01/05 00:12:48;;;;;;;8.73;4.63;;;3.40;99.90;;;;;;4899932;29;20385;-80
2022/01/05 00:15:13;;;;;;;9.43;4.30;;;3.40;99.90;;;;;;4898050;29;20888;-81
2022/01/05 00:17:39;;;;;;;8.93;4.55;;;3.30;99.90;;;;;;4880640;29;20397;-81
2022/01/05 00:20:05;;;;;;;8.43;4.13;;;3.30;99.90;;;;;;4897620;29;20392;-80
2022/01/05 00:22:31;;;;;;;7.60;3.72;;;3.30;99.90;;;;;;4880862;29;20428;-80
2022/01/05 00:24:56;;;;;;;7.10;4.20;;;3.30;99.90;;;;;;4897809;29;20446;-80
2022/01/05 00:27:22;;;;;;;6.85;3.35;;;3.30;99.90;;;;;;4897432;29;20896;-81
2022/01/05 00:29:48;;;;;;;9.57;3.77;;;3.30;99.90;;;;;;4897772;29;20382;-80
2022/01/05 00:32:14;;;;;;;9.23;3.67;;;3.30;99.90;;;;;;4897667;29;20441;-81
2022/01/05 00:34:39;;;;;;;6.05;3.45;;;3.30;99.90;;;;;;4897501;29;20419;-80
2022/01/05 00:37:05;;;;;;;9.20;3.50;;;3.40;99.90;;;;;;4896476;29;20389;-80
2022/01/05 00:39:31;;;;;;;9.82;3.72;;;3.40;99.90;;;;;;4897083;29;20389;-81
2022/01/05 00:41:56;;;;;;;9.40;3.33;;;3.30;99.90;;;;;;4879472;29;20381;-80
2022/01/05 00:44:24;;;;;;;7.57;3.30;;;3.50;99.90;;;;;;4879634;29;20746;-81
2022/01/05 00:46:50;;;;;;;8.73;3.80;;;3.50;99.90;;;;;;4880137;29;20429;-81
2022/01/05 00:49:16;;;;;;;9.10;3.40;;;3.50;99.90;;;;;;4896553;29;20389;-80
2022/01/05 00:51:41;;;;;;;8.98;3.63;;;3.50;99.90;;;;;;4897326;29;20385;-80
2022/01/05 00:54:07;;;;;;;8.13;3.40;;;3.50;99.90;;;;;;4896571;29;20412;-80
2022/01/05 00:56:32;;;;;;;10.50;3.27;;;3.50;99.90;;;;;;4896843;29;20472;-79
2022/01/05 00:58:58;;;;;;;8.60;3.13;;;3.60;99.90;;;;;;4897110;29;20768;-80
2022/01/05 01:01:24;;;;;;;9.77;3.30;;;3.60;99.90;;;;;;4897778;29;20444;-80
2022/01/05 01:03:50;;;;;;;8.05;3.28;;;3.60;99.90;;;;;;4880306;29;20397;-80
2022/01/05 01:06:16;;;;;;;8.63;3.97;;;3.70;99.90;;;;;;4880575;29;20417;-80
2022/01/05 01:08:42;;;;;;;7.70;3.38;;;3.70;99.90;;;;;;4897428;29;20377;-79
2022/01/05 01:11:07;;;;;;;9.32;3.38;;;3.80;99.90;;;;;;4897058;29;20397;-79
2022/01/05 01:13:34;;;;;;;10.98;3.10;;;3.80;99.90;;;;;;4895445;29;20401;-80
2022/01/05 01:16:00;;;;;;;7.47;3.20;;;3.90;99.90;;;;;;4880296;29;20813;-80
2022/01/05 01:18:25;;;;;;;10.43;3.42;;;3.90;99.90;;;;;;4879637;29;20447;-80
2022/01/05 01:20:51;;;;;;;8.90;3.15;;;3.90;99.90;;;;;;4896990;29;20409;-80
2022/01/05 01:23:20;;;;;;;8.97;3.00;;;3.90;99.90;;;;;;4897125;29;20407;-79
2022/01/05 01:25:47;;;;;;;10.63;3.17;;;3.90;99.90;;;;;;4899399;29;20389;-81
2022/01/05 01:28:12;;;;;;;10.10;3.00;;;4.00;99.90;;;;;;4896709;29;20393;-79
2022/01/05 01:30:38;;;;;;;7.70;3.00;;;4.00;99.90;;;;;;4895496;29;20389;-79
2022/01/05 01:33:04;;;;;;;9.40;3.25;;;4.00;99.90;;;;;;4896260;29;20388;-80
2022/01/05 01:35:29;;;;;;;8.55;2.63;;;4.10;99.90;;;;;;4896936;29;20385;-79
2022/01/05 01:37:56;;;;;;;9.90;3.33;;;4.20;99.90;;;;;;4879579;29;20476;-80
2022/01/05 01:40:21;;;;;;;8.50;3.13;;;4.20;99.90;;;;;;4879818;29;20744;-80
2022/01/05 01:42:47;;;;;;;9.00;3.05;;;4.20;99.90;;;;;;4896098;29;20413;-80
2022/01/05 01:45:13;;;;;;;9.90;3.10;;;4.20;99.90;;;;;;4896789;29;20809;-80
2022/01/05 01:47:40;;;;;;;7.97;2.90;;;4.20;99.90;;;;;;4879697;29;20831;-80
2022/01/05 01:50:07;;;;;;;8.88;3.00;;;4.20;99.90;;;;;;4895508;29;20485;-79
2022/01/05 01:52:32;;;;;;;7.63;2.72;;;4.30;99.90;;;;;;4897564;29;20480;-79
2022/01/05 01:54:58;;;;;;;10.95;3.33;;;4.20;99.90;;;;;;4900137;29;20470;-80
2022/01/05 01:57:25;;;;;;;8.13;3.28;;;4.20;99.90;;;;;;4897248;29;20481;-80
2022/01/05 01:59:52;;;;;;;9.55;3.00;;;4.20;99.90;;;;;;4896115;29;20427;-80
2022/01/05 02:02:18;;;;;;;7.28;3.13;;;4.10;99.90;;;;;;4895877;29;20400;-80
2022/01/05 02:04:45;;;;;;;12.30;3.60;;;4.10;99.90;;;;;;4896107;29;20868;-81
2022/01/05 02:07:12;;;;;;;11.48;3.30;;;4.10;99.90;;;;;;4895027;29;20392;-80
2022/01/05 02:09:40;;;;;;;10.13;2.95;;;4.00;99.90;;;;;;4895893;29;20565;-80
2022/01/05 02:12:06;;;;;;;9.15;3.10;;;4.00;99.90;;;;;;4878839;29;20397;-81
2022/01/05 02:14:32;;;;;;;6.95;3.13;;;4.10;99.90;;;;;;4895889;29;20419;-80
2022/01/05 02:17:02;;;;;;;8.63;3.33;;;4.00;99.90;;;;;;4895525;29;20420;-79
2022/01/05 02:19:28;;;;;;;10.48;3.08;;;4.10;99.90;;;;;;4895762;29;20389;-80
2022/01/05 02:21:53;;;;;;;8.68;3.30;;;4.10;99.90;;;;;;4879016;29;20396;-81
2022/01/05 02:24:19;;;;;;;9.15;3.22;;;4.10;99.90;;;;;;4895752;29;20449;-80
2022/01/05 02:26:45;;;;;;;8.18;3.03;;;4.20;99.90;;;;;;4896419;29;20389;-80
2022/01/05 02:29:10;;;;;;;9.00;3.07;;;4.20;99.90;;;;;;4895373;29;20397;-80
2022/01/05 02:31:36;;;;;;;7.60;3.17;;;4.20;99.90;;;;;;4895921;29;20454;-80
2022/01/05 02:34:02;;;;;;;8.38;2.72;;;4.10;99.90;;;;;;4879184;29;20428;-81
2022/01/05 02:36:28;;;;;;;10.70;3.60;;;4.10;99.90;;;;;;4895676;29;20397;-81
2022/01/05 02:38:54;;;;;;;9.10;3.20;;;4.10;99.90;;;;;;4895903;29;20453;-83
2022/01/05 02:41:20;;;;;;;8.45;3.40;;;4.10;99.90;;;;;;4895694;29;20811;-79
2022/01/05 02:43:46;;;;;;;12.02;3.38;;;4.00;99.90;;;;;;4878758;29;20431;-83
2022/01/05 02:46:15;;;;;;;10.63;3.60;;;4.00;99.90;;;;;;4895389;29;20466;-81
2022/01/05 02:48:42;;;;;;;10.43;3.03;;;4.00;99.90;;;;;;4896099;29;20880;-80
2022/01/05 02:51:09;;;;;;;10.10;3.38;;;4.00;99.90;;;;;;4896202;29;20916;-81
2022/01/05 02:53:35;;;;;;;10.82;3.30;;;4.00;99.90;;;;;;4880000;29;20397;-80
2022/01/05 02:56:00;;;;;;;7.53;3.40;;;4.10;99.90;;;;;;4897124;29;20478;-81
2022/01/05 02:58:26;;;;;;;8.27;3.50;;;4.00;99.90;;;;;;4879338;29;20496;-80
2022/01/05 03:00:52;;;;;;;11.93;3.30;;;4.10;99.90;;;;;;4896724;29;20385;-80
2022/01/05 03:03:17;;;;;;;9.63;2.77;;;4.00;99.90;;;;;;4896080;29;20761;-80
2022/01/05 03:05:43;;;;;;;8.93;3.30;;;4.10;99.90;;;;;;4879768;29;20473;-80
2022/01/05 03:08:09;;;;;;;9.40;3.05;;;4.10;99.90;;;;;;4895432;29;20412;-80
2022/01/05 03:10:35;;;;;;;10.13;3.20;;;4.10;99.90;;;;;;4896545;29;20406;-81
2022/01/05 03:13:01;;;;;;;8.50;3.17;;;4.10;99.90;;;;;;4878882;29;20396;-80
2022/01/05 03:15:27;;;;;;;7.90;3.00;;;4.10;99.90;;;;;;4879114;29;20401;-82
2022/01/05 03:17:52;;;;;;;11.55;3.20;;;4.20;99.90;;;;;;4895834;29;20474;-81
2022/01/05 03:20:19;;;;;;;11.32;3.60;;;4.20;99.90;;;;;;4899261;29;20393;-81
2022/01/05 03:22:47;;;;;;;12.93;3.30;;;4.10;99.90;;;;;;4882527;29;20500;-80
2022/01/05 03:25:18;;;;;;;9.53;3.27;;;4.10;99.90;;;;;;4883117;29;20464;-81
2022/01/05 03:27:46;;;;;;;8.77;2.90;;;4.10;99.90;;;;;;4898874;29;20782;-80
2022/01/05 03:30:17;;;;;;;11.52;3.20;;;4.20;99.90;;;;;;4899748;29;20397;-80
2022/01/05 03:35:30;;;;;;;9.13;2.85;;;4.20;99.90;;;;;;4900591;29;20916;-81
2022/01/05 03:37:56;;;;;;;11.27;3.25;;;4.20;99.90;;;;;;4882840;29;20389;-80
2022/01/05 03:40:22;;;;;;;9.17;3.20;;;4.20;99.90;;;;;;4899430;29;20868;-81
2022/01/05 03:42:48;;;;;;;10.05;3.30;;;4.20;99.90;;;;;;4900485;29;20413;-80
2022/01/05 03:45:14;;;;;;;7.53;2.92;;;4.20;99.90;;;;;;4898948;29;20926;-80
2022/01/05 03:47:39;;;;;;;10.00;3.00;;;4.20;99.90;;;;;;4901432;29;20838;-80
2022/01/05 03:50:05;;;;;;;10.73;3.60;;;4.30;99.90;;;;;;4902716;29;20381;-80
2022/01/05 03:52:31;;;;;;;7.47;3.17;;;4.20;99.90;;;;;;4882309;29;20460;-80
2022/01/05 03:54:57;;;;;;;9.05;3.03;;;4.30;99.90;;;;;;4881934;29;20500;-80
2022/01/05 03:57:24;;;;;;;10.48;3.15;;;4.30;99.90;;;;;;4899002;29;20421;-80
2022/01/05 03:59:51;;;;;;;11.27;3.20;;;4.20;99.90;;;;;;4882153;29;20396;-80
2022/01/05 04:02:16;;;;;;;9.18;3.13;;;4.20;99.90;;;;;;4882311;29;20484;-80
2022/01/05 04:04:42;;;;;;;11.07;2.85;;;4.20;99.90;;;;;;4899027;29;20563;-81
2022/01/05 04:07:08;;;;;;;15.18;3.78;;;4.20;99.90;;;;;;4882395;29;20385;-81
2022/01/05 04:09:34;;;;;;;8.75;3.13;;;4.30;99.90;;;;;;4901335;29;20392;-80
2022/01/05 04:11:59;;;;;;;9.75;3.38;;;4.30;99.90;;;;;;4903054;29;20740;-81
2022/01/05 04:14:25;;;;;;;11.38;3.10;;;4.20;99.90;;;;;;4897710;29;20444;-81
2022/01/05 04:16:51;;;;;;;10.93;3.80;;;4.20;99.90;;;;;;4898115;29;20392;-80
2022/01/05 04:19:16;;;;;;;12.17;3.40;;;4.20;99.90;;;;;;4898533;29;20440;-80
2022/01/05 04:21:42;;;;;;;12.48;3.28;;;4.30;99.90;;;;;;4881647;29;20389;-81
2022/01/05 04:24:07;;;;;;;10.23;3.67;;;4.30;99.90;;;;;;4881323;29;20412;-81
2022/01/05 04:26:33;;;;;;;12.57;3.10;;;4.20;99.90;;;;;;4902121;29;20392;-80
2022/01/05 04:28:58;;;;;;;10.27;3.53;;;4.20;99.90;;;;;;4900187;29;20473;-80
2022/01/05 04:31:24;;;;;;;9.10;3.38;;;4.20;99.90;;;;;;4881711;29;20381;-80
2022/01/05 04:33:50;;;;;;;13.20;3.50;;;4.20;99.90;;;;;;4897749;29;20393;-80
2022/01/05 04:36:15;;;;;;;10.93;3.23;;;4.30;99.90;;;;;;4898088;29;20481;-81
2022/01/05 04:38:41;;;;;;;13.00;3.60;;;4.20;99.90;;;;;;4897609;29;20389;-81
2022/01/05 04:41:07;;;;;;;9.80;3.40;;;4.10;99.90;;;;;;4880789;29;20401;-81
2022/01/05 04:43:32;;;;;;;12.10;3.60;;;4.20;99.90;;;;;;4897606;29;20420;-80
2022/01/05 04:45:58;;;;;;;12.23;3.87;;;4.10;99.90;;;;;;4897430;29;20752;-80
2022/01/05 04:48:23;;;;;;;13.03;3.40;;;4.10;99.90;;;;;;4896371;29;20418;-80
2022/01/05 04:50:49;;;;;;;11.70;3.63;;;4.20;99.90;;;;;;4897539;29;20872;-81
2022/01/05 04:53:15;;;;;;;13.00;4.03;;;4.20;99.90;;;;;;4897911;29;20395;-80
2022/01/05 04:55:42;;;;;;;15.55;4.28;;;4.20;99.90;;;;;;4898031;29;20773;-81
2022/01/05 04:58:08;;;;;;;12.32;3.40;;;4.30;99.90;;;;;;4897698;29;20956;-81
2022/01/05 05:00:35;;;;;;;10.40;3.15;;;4.20;99.90;;;;;;4898139;29;20464;-81
2022/01/05 05:03:01;;;;;;;15.35;3.83;;;4.20;99.90;;;;;;4897313;29;20769;-81
2022/01/05 05:05:27;;;;;;;9.73;3.73;;;4.10;99.90;;;;;;4881871;29;20393;-80
2022/01/05 05:07:52;;;;;;;11.95;3.45;;;4.20;99.90;;;;;;4898860;29;20385;-80
2022/01/05 05:10:18;;;;;;;14.20;3.87;;;4.20;99.90;;;;;;4900251;29;20472;-81
2022/01/05 05:12:44;;;;;;;9.40;3.10;;;4.20;99.90;;;;;;4903987;29;20868;-80
2022/01/05 05:15:10;;;;;;;14.45;3.75;;;4.20;99.90;;;;;;4886944;29;20401;-80
2022/01/05 05:17:36;;;;;;;11.02;3.53;;;4.20;99.90;;;;;;4901169;29;20896;-81
2022/01/05 05:20:02;;;;;;;17.60;3.47;;;4.20;99.90;;;;;;4881889;29;20896;-80
2022/01/05 05:22:27;;;;;;;13.00;4.07;;;4.20;99.90;;;;;;4900549;29;20417;-80
2022/01/05 05:24:53;;;;;;;14.00;4.10;;;4.10;99.90;;;;;;4899412;29;20961;-80
2022/01/05 05:27:19;;;;;;;13.07;3.37;;;4.10;99.90;;;;;;4898889;29;20389;-80
2022/01/05 05:29:44;;;;;;;9.35;3.22;;;4.10;99.90;;;;;;4881667;29;20741;-81
2022/01/05 05:32:11;;;;;;;14.53;3.57;;;4.10;99.90;;;;;;4880706;29;20386;-80
2022/01/05 05:34:37;;;;;;;11.57;4.35;;;4.10;99.90;;;;;;4897106;29;20400;-81
2022/01/05 05:37:03;;;;;;;12.50;3.53;;;4.10;99.90;;;;;;4898338;29;20392;-79
2022/01/05 05:39:28;;;;;;;15.43;3.60;;;4.10;99.90;;;;;;4880608;29;20411;-79
2022/01/05 05:41:54;;;;;;;11.75;4.05;;;4.00;99.90;;;;;;4897589;29;20772;-80
2022/01/05 05:44:20;;;;;;;16.03;4.13;;;4.00;99.90;;;;;;4898131;29;20960;-80
2022/01/05 05:46:45;;;;;;;10.77;3.57;;;4.00;99.90;;;;;;4898962;29;20381;-80
2022/01/05 05:49:11;;;;;;;13.97;4.23;;;4.00;99.90;;;;;;4885771;29;20517;-79
2022/01/05 05:51:37;;;;;;;11.55;4.07;;;3.90;99.90;;;;;;4880759;29;20392;-80
2022/01/05 05:54:04;;;;;;;13.95;4.43;;;3.80;99.90;;;;;;4897710;29;20424;-81
2022/01/05 05:56:29;;;;;;;16.83;3.97;;;3.90;99.90;;;;;;4877276;29;20831;-80
2022/01/05 05:58:55;;;;;;;12.07;3.67;;;3.80;99.90;;;;;;4891213;29;20927;-79
2022/01/05 06:01:21;;;;;;;11.13;3.72;;;3.80;99.90;;;;;;4880405;29;20401;-80
2022/01/05 06:03:46;;;;;;;13.15;3.63;;;3.80;99.90;;;;;;4895402;29;20409;-80
2022/01/05 06:06:12;;;;;;;14.93;3.88;;;3.90;99.90;;;;;;4896535;29;20484;-80
2022/01/05 06:08:39;;;;;;;11.32;3.60;;;3.80;99.90;;;;;;4879708;29;20472;-80
2022/01/05 06:11:06;;;;;;;13.45;3.47;;;3.80;99.90;;;;;;4896952;29;20910;-80
2022/01/05 06:13:33;;;;;;;13.30;3.65;;;3.70;99.90;;;;;;4898050;29;20484;-80
2022/01/05 06:15:59;;;;;;;15.55;4.20;;;3.70;99.90;;;;;;4897085;29;20388;-80
2022/01/05 06:18:25;;;;;;;13.75;3.88;;;3.70;99.90;;;;;;4896229;29;20405;-80
2022/01/05 06:20:50;;;;;;;11.65;3.30;;;3.60;99.90;;;;;;4895857;29;20453;-81
2022/01/05 06:23:16;;;;;;;12.95;3.78;;;3.60;99.90;;;;;;4880276;29;20456;-81
2022/01/05 06:25:41;;;;;;;12.73;3.73;;;3.50;99.90;;;;;;4896432;29;20393;-81
2022/01/05 06:28:11;;;;;;;12.43;3.83;;;3.50;99.90;;;;;;4879978;29;20753;-81
2022/01/05 06:30:38;;;;;;;10.27;3.70;;;3.50;99.90;;;;;;4896763;29;20397;-81
2022/01/05 06:33:04;;;;;;;15.15;4.93;;;3.50;99.90;;;;;;4896812;29;20383;-82
2022/01/05 06:35:30;;;;;;;13.50;4.67;;;3.50;99.90;;;;;;4896819;29;20386;-81
2022/01/05 06:37:55;;;;;;;12.48;3.65;;;3.40;99.90;;;;;;4896743;29;20454;-81
2022/01/05 06:40:27;;;;;;;14.75;3.95;;;3.30;99.90;;;;;;4880765;29;20382;-80
2022/01/05 06:42:53;;;;;;;14.35;4.28;;;3.30;99.90;;;;;;4897976;29;20401;-81
2022/01/05 06:45:18;;;;;;;13.73;4.15;;;3.30;99.90;;;;;;4897216;29;20488;-81
2022/01/05 06:47:44;;;;;;;15.18;4.55;;;3.20;99.90;;;;;;4880224;29;20406;-80
2022/01/05 06:50:10;;;;;;;14.63;4.30;;;3.20;99.90;;;;;;4896425;29;20393;-81
2022/01/05 06:52:37;;;;;;;14.02;3.75;;;3.20;99.90;;;;;;4897198;29;20389;-80
2022/01/05 06:55:04;;;;;;;12.65;3.80;;;3.30;99.90;;;;;;4898630;29;20389;-81
2022/01/05 06:57:29;;;;;;;13.55;3.97;;;3.30;99.90;;;;;;4898888;29;20393;-80
2022/01/05 06:59:55;;;;;;;16.40;4.10;;;3.10;99.90;;;;;;4900449;29;20455;-81
2022/01/05 07:02:20;;;;;;;17.20;4.47;;;3.20;99.90;;;;;;4899385;29;20385;-81
2022/01/05 07:04:46;;;;;;;17.60;4.40;;;3.10;99.90;;;;;;4899344;29;20782;-82
2022/01/05 07:07:12;;;;;;;15.63;4.43;;;3.10;99.90;;;;;;4900119;29;20963;-81
2022/01/05 07:09:37;;;;;;;17.25;3.78;;;3.10;99.90;;;;;;4898977;29;20518;-81
2022/01/05 07:12:03;;;;;;;15.55;3.78;;;3.20;99.90;;;;;;4899267;29;20409;-81
2022/01/05 07:14:29;;;;;;;15.02;3.60;;;3.10;99.90;;;;;;4883422;29;20389;-81
2022/01/05 07:16:55;;;;;;;13.23;3.50;;;3.20;99.90;;;;;;4898712;29;20389;-81
2022/01/05 07:19:21;;;;;;;14.25;3.90;;;3.30;99.90;;;;;;4899870;29;20389;-81
2022/01/05 07:21:47;;;;;;;18.00;4.00;;;3.30;99.90;;;;;;4897829;29;20745;-80
2022/01/05 07:24:16;;;;;;;14.90;3.73;;;3.20;99.90;;;;;;4899174;29;20906;-81
2022/01/05 07:26:43;;;;;;;14.95;4.22;;;3.30;99.90;;;;;;4899415;29;20776;-81
2022/01/05 07:29:09;;;;;;;12.35;4.18;;;3.20;99.90;;;;;;4899041;29;20382;-81
2022/01/05 07:31:35;;;;;;;16.23;4.00;;;3.20;99.90;;;;;;4899178;29;20404;-80
2022/01/05 07:34:00;;;;;;;10.40;3.03;;;3.20;99.90;;;;;;4899853;29;20392;-80
2022/01/05 07:36:26;;;;;;;12.03;3.60;;;3.20;99.90;;;;;;4898750;29;20397;-80
2022/01/05 07:38:52;;;;;;;12.10;3.70;;;3.10;99.90;;;;;;4879507;29;20497;-82
2022/01/05 07:41:17;;;;;;;11.70;3.50;;;3.20;99.90;;;;;;4865228;29;20395;-81
2022/01/05 07:43:43;;;;;;;16.02;3.83;;;3.20;99.90;;;;;;4811819;29;1823574;-80
2022/01/05 07:46:08;;;;;;;11.93;3.47;;;3.20;99.90;;;;;;4892104;29;20401;-80
2022/01/05 07:48:35;;;;;;;13.27;4.00;;;3.20;99.90;;;;;;4893202;29;20392;-81
2022/01/05 07:51:01;;;;;;;14.52;4.30;;;3.10;99.90;;;;;;4878993;29;20488;-80
2022/01/05 07:53:27;;;;;;;13.63;4.07;;;3.20;99.90;;;;;;4880058;29;20876;-81
2022/01/05 07:55:52;;;;;;;11.63;3.77;;;3.20;99.90;;;;;;4896337;29;20916;-80
2022/01/05 07:58:20;;;;;;;13.23;3.97;;;3.10;99.90;;;;;;4878975;29;20530;-81
2022/01/05 08:00:46;;;;;;;14.63;3.88;;;3.10;99.90;;;;;;4897383;29;20428;-81
2022/01/05 08:03:12;;;;;;;12.23;4.07;;;3.20;99.90;;;;;;4898627;29;20409;-81
2022/01/05 08:05:38;;;;;;;13.13;3.70;;;3.20;99.90;;;;;;4897033;29;20415;-81
2022/01/05 08:08:03;;;;;;;14.20;3.93;;;3.20;99.90;;;;;;4898636;29;20444;-81
2022/01/05 08:10:29;;;;;;;12.03;3.63;;;3.10;99.90;;;;;;4901120;29;20733;-81
2022/01/05 08:12:55;;;;;;;15.45;3.97;;;3.10;99.90;;;;;;4902639;29;20386;-80
2022/01/05 08:15:20;;;;;;;16.20;3.75;;;3.20;99.90;;;;;;4885063;29;20409;-80
2022/01/05 08:17:46;;;;;;;12.82;3.80;;;3.10;99.90;;;;;;4885031;29;20397;-80
2022/01/05 08:20:12;;;;;;;12.63;3.73;;;3.10;99.90;;;;;;4885352;29;20389;-79
2022/01/05 08:22:43;;;;;;;12.35;3.67;;;3.10;99.90;;;;;;4900731;29;20392;-81
2022/01/05 08:25:10;;;;;;;13.88;3.80;;;3.20;99.90;;;;;;4901225;29;20401;-79
2022/01/05 08:27:37;;;;;;;12.77;4.13;;;3.10;99.90;;;;;;4900303;29;20404;-81
2022/01/05 08:30:06;;;;;;;13.02;3.53;;;3.20;99.90;;;;;;4902249;29;20456;-80
2022/01/05 08:32:32;;;;;;;10.77;3.53;;;3.20;99.90;;;;;;4900580;29;20397;-81
2022/01/05 08:34:59;;;;;;;15.35;3.97;;;3.20;99.90;;;;;;4900666;29;20385;-80
2022/01/05 08:37:24;;;;;;;12.45;3.80;;;3.30;99.90;;;;;;4898249;29;20479;-81
2022/01/05 08:39:51;;;;;;;11.07;3.72;;;3.30;99.90;;;;;;4899318;29;20385;-82
2022/01/05 08:42:18;;;;;;;11.07;3.58;;;3.40;99.90;;;;;;4878467;29;20410;-81
2022/01/05 08:44:44;;;;;;;10.38;3.40;;;3.50;99.90;;;;;;4882861;29;20457;-80
2022/01/05 08:47:09;;;;;;;13.02;3.80;;;3.50;99.90;;;;;;4899907;29;20405;-79
2022/01/05 08:49:35;;;;;;;13.05;3.83;;;3.50;99.90;;;;;;4898463;29;20408;-80
2022/01/05 08:52:01;;;;;;;11.77;4.10;;;3.50;99.90;;;;;;4898366;29;20457;-80
2022/01/05 08:54:27;;;;;;;11.87;4.30;;;3.60;99.90;;;;;;4897787;29;20413;-80
2022/01/05 08:56:54;;;;;;;11.88;3.75;;;3.70;99.90;;;;;;4899219;29;20381;-80
2022/01/05 08:59:20;;;;;;;13.15;3.53;;;3.80;99.90;;;;;;4883776;29;20413;-81
2022/01/05 09:01:47;;;;;;;10.82;3.65;;;4.00;99.90;;;;;;4900488;29;20389;-80
2022/01/05 09:04:12;;;;;;;12.93;3.75;;;4.20;99.90;;;;;;4899060;29;20405;-81
2022/01/05 09:06:38;;;;;;;12.23;3.75;;;4.40;99.90;;;;;;4878821;29;20901;-81
2022/01/05 09:09:04;;;;;;;13.50;3.55;;;4.60;99.90;;;;;;4879592;29;20379;-81
2022/01/05 09:11:30;;;;;;;13.77;3.65;;;4.60;99.90;;;;;;4879236;29;20474;-81
2022/01/05 09:13:56;;;;;;;10.63;3.75;;;4.70;99.90;;;;;;4889214;29;20849;-81
2022/01/05 09:16:21;;;;;;;8.68;3.22;;;4.60;99.90;;;;;;4897824;29;20389;-82
2022/01/05 09:18:47;;;;;;;12.80;3.60;;;4.70;99.90;;;;;;4881877;29;20970;-82
2022/01/05 09:21:13;;;;;;;11.57;3.60;;;4.70;99.90;;;;;;4896741;29;20400;-79
2022/01/05 09:23:38;;;;;;;13.53;3.70;;;4.70;99.90;;;;;;4880695;29;20428;-81
2022/01/05 09:26:04;;;;;;;12.60;3.80;;;4.60;99.90;;;;;;4898001;29;20407;-81
2022/01/05 09:28:30;;;;;;;16.40;4.53;;;4.60;99.90;;;;;;4896949;29;20398;-80
2022/01/05 09:30:56;;;;;;;14.95;4.18;;;4.60;99.90;;;;;;4895748;29;20393;-82
2022/01/05 09:33:24;;;;;;;13.10;3.83;;;4.50;99.90;;;;;;4894678;29;20776;-82
2022/01/05 09:35:59;;;;;;;15.82;3.90;;;4.30;99.90;;;;;;4897423;29;20393;-81
2022/01/05 09:43:56;;;;;;;15.63;3.83;;;4.30;99.90;;;;;;4896857;29;20411;-81
2022/01/05 09:46:32;;;;;;;13.00;3.92;;;4.30;99.90;;;;;;4880794;29;20392;-81
2022/01/05 09:49:09;;;;;;;13.20;3.47;;;4.40;99.90;;;;;;4879910;29;20397;-81
2022/01/05 09:51:38;;;;;;;11.18;3.70;;;4.50;99.90;;;;;;4896981;29;20891;-81
2022/01/05 09:54:03;;;;;;;12.52;3.92;;;4.70;99.90;;;;;;4879576;29;20500;-81
2022/01/05 09:56:31;;;;;;;14.02;3.83;;;4.90;99.90;;;;;;4897860;29;20833;-80
2022/01/05 09:59:01;;;;;;;13.60;3.90;;;5.00;99.90;;;;;;4897139;29;20496;-81
2022/01/05 10:01:34;;;;;;;14.02;4.15;;;5.20;99.90;;;;;;4897236;29;20452;-81
2022/01/05 10:04:00;;;;;;;13.65;3.80;;;5.20;99.90;;;;;;4876286;29;20939;-81
2022/01/05 10:06:26;;;;;;;11.13;3.65;;;5.10;99.90;;;;;;4878480;29;20399;-81
2022/01/05 10:08:52;;;;;;;13.55;4.35;;;5.20;99.90;;;;;;4879486;29;20393;-81
2022/01/05 10:11:22;;;;;;;14.15;4.07;;;5.30;99.90;;;;;;4896924;29;20734;-80
2022/01/05 10:13:48;;;;;;;13.57;4.00;;;5.40;99.90;;;;;;4896780;29;20448;-81
2022/01/05 10:16:14;;;;;;;15.43;4.10;;;5.30;99.90;;;;;;4898028;29;20872;-78
2022/01/05 10:18:41;;;;;;;15.97;4.03;;;5.30;99.90;;;;;;4878001;29;20436;-80
2022/01/05 10:21:07;;;;;;;15.23;3.83;;;5.30;99.90;;;;;;4891552;29;20393;-79
2022/01/05 10:23:36;;;;;;;11.77;3.60;;;5.20;99.90;;;;;;4899862;29;20817;-79
2022/01/05 10:26:39;;;;;;;12.27;4.67;;;5.30;99.90;;;;;;4880022;29;20586;-80
2022/01/05 10:29:14;;;;;;;14.68;4.15;;;5.30;99.90;;;;;;4841532;29;20402;-81
2022/01/05 10:31:41;;;;;;;14.57;3.97;;;5.30;99.90;;;;;;4876281;29;20962;-80
2022/01/05 10:34:19;;;;;;;13.73;4.13;;;5.20;99.90;;;;;;4890102;29;20425;-80
2022/01/05 10:36:46;;;;;;;10.07;3.67;;;5.20;99.90;;;;;;4899219;29;20392;-82
2022/01/05 10:39:11;;;;;;;12.65;4.25;;;5.10;99.90;;;;;;4898035;29;20389;-81
2022/01/05 10:41:38;;;;;;;14.50;4.30;;;5.20;99.90;;;;;;4900512;29;20487;-80
2022/01/05 10:44:19;;;;;;;12.93;3.95;;;5.00;99.90;;;;;;4900566;29;20409;-80
2022/01/05 10:46:48;;;;;;;13.27;4.00;;;4.90;99.90;;;;;;4905262;29;20455;-79
2022/01/05 10:49:38;;;;;;;14.35;4.35;;;4.90;99.90;;;;;;4881882;29;20413;-80
2022/01/05 10:52:27;;;;;;;13.93;4.20;;;4.80;99.90;;;;;;4897580;29;20391;-80
2022/01/05 10:54:55;;;;;;;14.00;4.63;;;4.80;99.90;;;;;;4881611;29;20911;-81
2022/01/05 10:57:22;;;;;;;15.07;4.50;;;4.90;99.90;;;;;;4893868;29;20393;-81
2022/01/05 10:59:53;;;;;;;14.07;4.65;;;5.00;99.90;;;;;;4878870;29;20848;-81
2022/01/05 11:02:21;;;;;;;13.32;4.07;;;5.00;99.90;;;;;;4879732;29;20394;-82
2022/01/05 11:04:47;;;;;;;13.50;4.50;;;5.20;99.90;;;;;;4876302;29;20909;-81
2022/01/05 11:07:22;;;;;;;14.25;4.55;;;5.20;99.90;;;;;;4883521;29;20406;-81
2022/01/05 11:09:58;;;;;;;14.50;4.00;;;5.20;99.90;;;;;;4890852;29;20481;-81
2022/01/05 11:12:36;;;;;;;15.68;4.93;;;5.30;99.90;;;;;;4879208;29;20894;-81
2022/01/05 11:15:23;;;;;;;12.70;4.70;;;5.20;99.90;;;;;;4880065;29;20453;-82
2022/01/05 11:18:18;;;;;;;11.07;4.45;;;5.20;99.90;;;;;;4893135;29;20389;-84
2022/01/05 11:20:57;;;;;;;8.95;3.67;;;5.40;99.90;;;;;;4893207;29;20385;-82
2022/01/05 11:23:25;;;;;;;12.38;4.35;;;5.40;99.90;;;;;;4878351;29;20600;-82
2022/01/05 11:25:53;;;;;;;13.65;3.97;;;5.40;99.90;;;;;;4878321;29;20414;-82
2022/01/05 11:28:21;;;;;;;14.13;4.47;;;5.50;99.90;;;;;;4895496;29;20469;-82
2022/01/05 11:30:49;;;;;;;14.43;4.15;;;5.60;99.90;;;;;;4895298;29;20416;-82
2022/01/05 11:33:16;;;;;;;15.13;4.90;;;5.60;99.90;;;;;;4894735;29;20397;-82
2022/01/05 11:35:42;;;;;;;11.77;4.45;;;5.50;99.90;;;;;;4878940;29;20393;-82
2022/01/05 11:38:09;;;;;;;17.75;4.95;;;5.40;99.90;;;;;;4879151;29;20424;-82
2022/01/05 11:40:38;;;;;;;14.95;4.65;;;5.30;99.90;;;;;;4897820;29;20864;-81
2022/01/05 11:43:07;;;;;;;13.25;4.75;;;5.40;99.90;;;;;;4898881;29;20428;-82
2022/01/05 11:45:45;;;;;;;11.02;3.85;;;5.40;99.90;;;;;;4897995;29;20413;-82
2022/01/05 11:48:19;;;;;;;13.98;4.43;;;5.40;99.90;;;;;;4898884;29;20437;-81
2022/01/05 11:50:56;;;;;;;13.90;4.97;;;5.50;99.90;;;;;;4881855;29;20381;-82
2022/01/05 11:53:44;;;;;;;16.80;4.78;;;5.50;99.90;;;;;;4883191;29;20484;-81
2022/01/05 11:56:35;;;;;;;15.57;5.57;;;5.60;99.90;;;;;;4900337;29;20538;-82
2022/01/05 11:59:03;;;;;;;13.17;4.93;;;5.50;99.90;;;;;;4898222;29;20444;-82
2022/01/05 12:01:35;;;;;;;13.82;5.03;;;5.60;99.90;;;;;;4882901;29;20423;-83
2022/01/05 12:04:06;;;;;;;14.00;5.25;;;5.50;99.90;;;;;;4897617;29;20459;-82
2022/01/05 12:07:01;;;;;;;16.17;5.13;;;5.40;99.90;;;;;;4898985;29;20498;-82
2022/01/05 12:09:30;;;;;;;16.05;5.43;;;5.30;99.90;;;;;;4897772;29;20413;-82
2022/01/05 12:12:02;;;;;;;17.05;5.38;;;5.30;99.90;;;;;;4900333;29;20897;-81
2022/01/05 12:14:30;;;;;;;11.80;4.70;;;5.30;99.90;;;;;;4883291;29;20400;-81
2022/01/05 12:16:59;;;;;;;14.73;5.43;;;5.20;99.90;;;;;;4883106;29;20393;-81
2022/01/05 12:19:26;;;;;;;14.53;5.30;;;5.20;99.90;;;;;;4882756;29;20494;-81
2022/01/05 12:21:54;;;;;;;10.20;4.70;;;5.20;99.90;;;;;;4897876;29;20393;-81
2022/01/05 12:24:21;;;;;;;12.68;5.18;;;5.30;99.90;;;;;;4899661;29;20500;-81
2022/01/05 12:27:18;;;;;;;15.15;4.65;;;5.30;99.90;;;;;;4901234;29;20397;-81
2022/01/05 12:29:46;;;;;;;12.00;4.33;;;5.30;99.90;;;;;;4900083;29;20386;-83
2022/01/05 12:32:29;;;;;;;12.43;4.53;;;5.30;99.90;;;;;;4901514;29;20453;-82
2022/01/05 12:34:57;;;;;;;13.15;4.72;;;5.30;99.90;;;;;;4900204;29;20406;-82
2022/01/05 12:37:38;;;;;;;13.45;4.68;;;5.30;99.90;;;;;;4900275;29;20397;-81
2022/01/05 12:40:36;;;;;;;15.60;5.05;;;5.30;99.90;;;;;;4900201;29;20451;-81
2022/01/05 12:43:08;;;;;;;13.95;4.68;;;5.30;99.90;;;;;;4897165;29;20790;-81
2022/01/05 12:45:57;;;;;;;12.48;4.40;;;5.20;99.90;;;;;;4899145;29;20392;-80
2022/01/05 12:48:35;;;;;;;14.00;4.70;;;5.20;99.90;;;;;;4898479;29;20385;-82
2022/01/05 12:51:22;;;;;;;12.73;4.43;;;5.10;99.90;;;;;;4881928;29;20449;-81
2022/01/05 12:54:00;;;;;;;12.07;4.78;;;5.20;99.90;;;;;;4881408;29;20396;-80
2022/01/05 12:56:32;;;;;;;13.48;4.60;;;5.30;99.90;;;;;;4880604;29;20469;-81
2022/01/05 12:58:59;;;;;;;16.33;5.10;;;5.30;99.90;;;;;;4874894;29;20405;-81
2022/01/05 13:01:27;;;;;;;12.68;4.32;;;5.30;99.90;;;;;;4882328;29;20403;-81